sensor_id;sensor_type;location;lat;lon;timestamp;P1;durP1;ratioP1;P2;durP2;ratioP2
51824;SDS011;37879;52.986;6.282;2023-08-24T00:00:41;7.68;;;6.28;;
51824;SDS011;37879;52.986;6.282;2023-08-24T00:03:08;8.32;;;6.95;;
51824;SDS011;37879;52.986;6.282;2023-08-24T00:05:34;7.68;;;5.05;;
51824;SDS011;37879;52.986;6.282;2023-08-24T00:08:07;7.20;;;4.93;;
51824;SDS011;37879;52.986;6.282;2023-08-24T00:10:33;6.80;;;5.53;;
51824;SDS011;37879;52.986;6.282;2023-08-24T00:12:59;6.05;;;5.28;;
51824;SDS011;37879;52.986;6.282;2023-08-24T00:15:25;7.40;;;6.07;;
51824;SDS011;37879;52.986;6.282;2023-08-24T00:17:51;8.43;;;6.30;;
51824;SDS011;37879;52.986;6.282;2023-08-24T00:20:17;6.35;;;5.70;;
51824;SDS011;37879;52.986;6.282;2023-08-24T00:22:43;7.45;;;5.30;;
51824;SDS011;37879;52.986;6.282;2023-08-24T00:25:08;10.15;;;5.85;;
51824;SDS011;37879;52.986;6.282;2023-08-24T00:27:35;7.70;;;6.70;;
51824;SDS011;37879;52.986;6.282;2023-08-24T00:30:04;9.80;;;5.63;;
51824;SDS011;37879;52.986;6.282;2023-08-24T00:32:34;8.07;;;5.72;;
51824;SDS011;37879;52.986;6.282;2023-08-24T00:35:03;7.50;;;5.85;;
51824;SDS011;37879;52.986;6.282;2023-08-24T00:37:33;6.70;;;4.95;;
51824;SDS011;37879;52.986;6.282;2023-08-24T00:40:05;7.70;;;5.18;;
51824;SDS011;37879;52.986;6.282;2023-08-24T00:42:41;8.68;;;5.85;;
51824;SDS011;37879;52.986;6.282;2023-08-24T00:45:09;7.50;;;5.45;;
51824;SDS011;37879;52.986;6.282;2023-08-24T00:47:44;6.63;;;4.68;;
51824;SDS011;37879;52.986;6.282;2023-08-24T00:50:11;5.95;;;4.53;;
51824;SDS011;37879;52.986;6.282;2023-08-24T00:52:38;6.45;;;4.65;;
51824;SDS011;37879;52.986;6.282;2023-08-24T00:55:06;7.60;;;4.40;;
51824;SDS011;37879;52.986;6.282;2023-08-24T00:57:33;6.30;;;4.60;;
51824;SDS011;37879;52.986;6.282;2023-08-24T01:00:03;5.97;;;5.00;;
51824;SDS011;37879;52.986;6.282;2023-08-24T01:02:31;7.13;;;5.05;;
51824;SDS011;37879;52.986;6.282;2023-08-24T01:04:58;6.20;;;4.63;;
51824;SDS011;37879;52.986;6.282;2023-08-24T01:07:24;5.57;;;5.03;;
51824;SDS011;37879;52.986;6.282;2023-08-24T01:09:50;7.35;;;5.00;;
51824;SDS011;37879;52.986;6.282;2023-08-24T01:17:42;5.78;;;4.35;;
51824;SDS011;37879;52.986;6.282;2023-08-24T01:20:09;6.93;;;4.95;;
51824;SDS011;37879;52.986;6.282;2023-08-24T01:25:15;7.18;;;4.22;;
51824;SDS011;37879;52.986;6.282;2023-08-24T01:27:45;7.03;;;4.75;;
51824;SDS011;37879;52.986;6.282;2023-08-24T01:30:12;4.65;;;4.00;;
51824;SDS011;37879;52.986;6.282;2023-08-24T01:32:39;5.22;;;4.40;;
51824;SDS011;37879;52.986;6.282;2023-08-24T01:35:08;7.43;;;4.53;;
51824;SDS011;37879;52.986;6.282;2023-08-24T01:37:34;5.70;;;3.85;;
51824;SDS011;37879;52.986;6.282;2023-08-24T01:40:09;7.95;;;4.65;;
51824;SDS011;37879;52.986;6.282;2023-08-24T01:42:50;5.65;;;3.90;;
51824;SDS011;37879;52.986;6.282;2023-08-24T01:45:27;7.55;;;4.82;;
51824;SDS011;37879;52.986;6.282;2023-08-24T01:47:54;8.20;;;4.70;;
51824;SDS011;37879;52.986;6.282;2023-08-24T01:50:21;9.05;;;4.35;;
51824;SDS011;37879;52.986;6.282;2023-08-24T01:52:48;7.75;;;4.38;;
51824;SDS011;37879;52.986;6.282;2023-08-24T01:55:17;7.53;;;4.20;;
51824;SDS011;37879;52.986;6.282;2023-08-24T01:57:43;7.75;;;4.35;;
51824;SDS011;37879;52.986;6.282;2023-08-24T02:00:09;5.88;;;3.80;;
51824;SDS011;37879;52.986;6.282;2023-08-24T02:02:35;7.05;;;4.90;;
51824;SDS011;37879;52.986;6.282;2023-08-24T02:05:02;6.63;;;4.30;;
51824;SDS011;37879;52.986;6.282;2023-08-24T02:07:28;8.07;;;5.50;;
51824;SDS011;37879;52.986;6.282;2023-08-24T02:09:54;6.60;;;4.50;;
51824;SDS011;37879;52.986;6.282;2023-08-24T02:12:19;7.90;;;5.00;;
51824;SDS011;37879;52.986;6.282;2023-08-24T02:14:45;8.80;;;5.93;;
51824;SDS011;37879;52.986;6.282;2023-08-24T02:17:11;7.75;;;5.35;;
51824;SDS011;37879;52.986;6.282;2023-08-24T02:19:36;8.75;;;4.90;;
51824;SDS011;37879;52.986;6.282;2023-08-24T02:22:02;8.98;;;5.95;;
51824;SDS011;37879;52.986;6.282;2023-08-24T02:24:28;10.02;;;5.25;;
51824;SDS011;37879;52.986;6.282;2023-08-24T02:26:53;7.25;;;4.60;;
51824;SDS011;37879;52.986;6.282;2023-08-24T02:29:19;6.55;;;4.85;;
51824;SDS011;37879;52.986;6.282;2023-08-24T02:31:45;6.25;;;5.28;;
51824;SDS011;37879;52.986;6.282;2023-08-24T02:34:11;11.05;;;5.07;;
51824;SDS011;37879;52.986;6.282;2023-08-24T02:36:36;5.40;;;4.25;;
51824;SDS011;37879;52.986;6.282;2023-08-24T02:39:02;7.03;;;4.88;;
51824;SDS011;37879;52.986;6.282;2023-08-24T02:41:28;5.82;;;4.60;;
51824;SDS011;37879;52.986;6.282;2023-08-24T02:43:54;6.10;;;4.05;;
51824;SDS011;37879;52.986;6.282;2023-08-24T02:46:20;7.95;;;5.43;;
51824;SDS011;37879;52.986;6.282;2023-08-24T02:48:46;7.45;;;4.80;;
51824;SDS011;37879;52.986;6.282;2023-08-24T02:51:13;5.65;;;4.50;;
51824;SDS011;37879;52.986;6.282;2023-08-24T02:53:38;6.78;;;4.63;;
51824;SDS011;37879;52.986;6.282;2023-08-24T02:56:04;8.95;;;4.95;;
51824;SDS011;37879;52.986;6.282;2023-08-24T02:58:30;8.57;;;5.18;;
51824;SDS011;37879;52.986;6.282;2023-08-24T03:00:56;5.72;;;4.88;;
51824;SDS011;37879;52.986;6.282;2023-08-24T03:03:23;7.38;;;4.55;;
51824;SDS011;37879;52.986;6.282;2023-08-24T03:05:56;6.50;;;4.55;;
51824;SDS011;37879;52.986;6.282;2023-08-24T03:08:22;7.30;;;4.25;;
51824;SDS011;37879;52.986;6.282;2023-08-24T03:10:48;4.70;;;3.50;;
51824;SDS011;37879;52.986;6.282;2023-08-24T03:13:14;8.60;;;4.15;;
51824;SDS011;37879;52.986;6.282;2023-08-24T03:15:40;5.45;;;4.00;;
51824;SDS011;37879;52.986;6.282;2023-08-24T03:18:06;4.97;;;4.13;;
51824;SDS011;37879;52.986;6.282;2023-08-24T03:20:31;6.70;;;4.65;;
51824;SDS011;37879;52.986;6.282;2023-08-24T03:22:57;6.18;;;3.88;;
51824;SDS011;37879;52.986;6.282;2023-08-24T03:25:23;9.35;;;4.82;;
51824;SDS011;37879;52.986;6.282;2023-08-24T03:27:48;8.65;;;4.22;;
51824;SDS011;37879;52.986;6.282;2023-08-24T03:30:15;5.55;;;3.85;;
51824;SDS011;37879;52.986;6.282;2023-08-24T03:32:41;5.80;;;4.00;;
51824;SDS011;37879;52.986;6.282;2023-08-24T03:35:07;5.05;;;4.03;;
51824;SDS011;37879;52.986;6.282;2023-08-24T03:37:33;8.20;;;4.38;;
51824;SDS011;37879;52.986;6.282;2023-08-24T03:39:59;6.13;;;4.07;;
51824;SDS011;37879;52.986;6.282;2023-08-24T03:42:24;8.00;;;4.75;;
51824;SDS011;37879;52.986;6.282;2023-08-24T03:44:50;7.15;;;4.55;;
51824;SDS011;37879;52.986;6.282;2023-08-24T03:47:16;8.73;;;5.10;;
51824;SDS011;37879;52.986;6.282;2023-08-24T03:49:42;6.03;;;4.03;;
51824;SDS011;37879;52.986;6.282;2023-08-24T03:52:08;8.70;;;4.75;;
51824;SDS011;37879;52.986;6.282;2023-08-24T03:54:34;6.40;;;5.20;;
51824;SDS011;37879;52.986;6.282;2023-08-24T03:57:00;7.45;;;4.68;;
51824;SDS011;37879;52.986;6.282;2023-08-24T03:59:26;7.47;;;4.80;;
51824;SDS011;37879;52.986;6.282;2023-08-24T04:01:52;8.65;;;5.32;;
51824;SDS011;37879;52.986;6.282;2023-08-24T04:04:17;6.72;;;4.05;;
51824;SDS011;37879;52.986;6.282;2023-08-24T04:06:43;9.25;;;4.50;;
51824;SDS011;37879;52.986;6.282;2023-08-24T04:09:09;6.15;;;4.38;;
51824;SDS011;37879;52.986;6.282;2023-08-24T04:11:35;7.60;;;5.35;;
51824;SDS011;37879;52.986;6.282;2023-08-24T04:14:01;7.90;;;5.53;;
51824;SDS011;37879;52.986;6.282;2023-08-24T04:16:27;10.93;;;6.05;;
51824;SDS011;37879;52.986;6.282;2023-08-24T04:18:52;7.63;;;5.10;;
51824;SDS011;37879;52.986;6.282;2023-08-24T04:21:18;7.65;;;4.55;;
51824;SDS011;37879;52.986;6.282;2023-08-24T04:23:44;6.10;;;4.63;;
51824;SDS011;37879;52.986;6.282;2023-08-24T04:26:13;9.15;;;4.95;;
51824;SDS011;37879;52.986;6.282;2023-08-24T04:28:39;6.15;;;4.43;;
51824;SDS011;37879;52.986;6.282;2023-08-24T04:31:05;5.68;;;4.22;;
51824;SDS011;37879;52.986;6.282;2023-08-24T04:33:30;7.72;;;4.60;;
51824;SDS011;37879;52.986;6.282;2023-08-24T04:35:56;8.48;;;5.75;;
51824;SDS011;37879;52.986;6.282;2023-08-24T04:38:23;8.88;;;5.22;;
51824;SDS011;37879;52.986;6.282;2023-08-24T04:40:49;6.32;;;4.60;;
51824;SDS011;37879;52.986;6.282;2023-08-24T04:43:17;7.97;;;4.78;;
51824;SDS011;37879;52.986;6.282;2023-08-24T04:45:45;7.93;;;4.03;;
51824;SDS011;37879;52.986;6.282;2023-08-24T04:48:17;11.25;;;5.82;;
51824;SDS011;37879;52.986;6.282;2023-08-24T04:50:46;6.65;;;4.43;;
51824;SDS011;37879;52.986;6.282;2023-08-24T04:53:14;7.40;;;4.93;;
51824;SDS011;37879;52.986;6.282;2023-08-24T04:55:42;8.68;;;5.25;;
51824;SDS011;37879;52.986;6.282;2023-08-24T04:58:08;8.80;;;4.95;;
51824;SDS011;37879;52.986;6.282;2023-08-24T05:00:34;7.00;;;4.82;;
51824;SDS011;37879;52.986;6.282;2023-08-24T05:03:00;7.50;;;5.20;;
51824;SDS011;37879;52.986;6.282;2023-08-24T05:05:28;7.20;;;4.63;;
51824;SDS011;37879;52.986;6.282;2023-08-24T05:07:55;10.88;;;5.10;;
51824;SDS011;37879;52.986;6.282;2023-08-24T05:10:21;7.82;;;4.88;;
51824;SDS011;37879;52.986;6.282;2023-08-24T05:12:46;10.38;;;4.45;;
51824;SDS011;37879;52.986;6.282;2023-08-24T05:15:12;10.80;;;5.22;;
51824;SDS011;37879;52.986;6.282;2023-08-24T05:17:38;8.23;;;4.30;;
51824;SDS011;37879;52.986;6.282;2023-08-24T05:20:05;6.20;;;4.43;;
51824;SDS011;37879;52.986;6.282;2023-08-24T05:22:33;6.75;;;4.65;;
51824;SDS011;37879;52.986;6.282;2023-08-24T05:24:59;7.00;;;3.97;;
51824;SDS011;37879;52.986;6.282;2023-08-24T05:27:24;7.32;;;4.47;;
51824;SDS011;37879;52.986;6.282;2023-08-24T05:29:50;8.07;;;5.07;;
51824;SDS011;37879;52.986;6.282;2023-08-24T05:32:16;6.85;;;5.13;;
51824;SDS011;37879;52.986;6.282;2023-08-24T05:34:41;7.78;;;4.75;;
51824;SDS011;37879;52.986;6.282;2023-08-24T05:37:07;8.85;;;5.15;;
51824;SDS011;37879;52.986;6.282;2023-08-24T05:39:33;9.57;;;5.30;;
51824;SDS011;37879;52.986;6.282;2023-08-24T05:41:58;9.15;;;5.00;;
51824;SDS011;37879;52.986;6.282;2023-08-24T05:44:24;6.75;;;4.57;;
51824;SDS011;37879;52.986;6.282;2023-08-24T05:46:49;8.63;;;5.28;;
51824;SDS011;37879;52.986;6.282;2023-08-24T05:49:15;6.68;;;4.45;;
51824;SDS011;37879;52.986;6.282;2023-08-24T05:51:41;7.30;;;4.32;;
51824;SDS011;37879;52.986;6.282;2023-08-24T05:54:06;10.85;;;4.80;;
51824;SDS011;37879;52.986;6.282;2023-08-24T05:56:32;7.70;;;4.53;;
51824;SDS011;37879;52.986;6.282;2023-08-24T05:58:58;9.68;;;5.32;;
51824;SDS011;37879;52.986;6.282;2023-08-24T06:01:24;5.18;;;4.00;;
51824;SDS011;37879;52.986;6.282;2023-08-24T06:03:50;7.78;;;4.78;;
51824;SDS011;37879;52.986;6.282;2023-08-24T06:06:16;5.90;;;4.43;;
51824;SDS011;37879;52.986;6.282;2023-08-24T06:08:42;6.18;;;4.47;;
51824;SDS011;37879;52.986;6.282;2023-08-24T06:11:08;7.88;;;4.03;;
51824;SDS011;37879;52.986;6.282;2023-08-24T06:13:34;9.07;;;5.47;;
51824;SDS011;37879;52.986;6.282;2023-08-24T06:16:00;6.38;;;4.20;;
51824;SDS011;37879;52.986;6.282;2023-08-24T06:18:26;5.85;;;4.70;;
51824;SDS011;37879;52.986;6.282;2023-08-24T06:20:53;6.15;;;3.67;;
51824;SDS011;37879;52.986;6.282;2023-08-24T06:23:19;8.32;;;4.60;;
51824;SDS011;37879;52.986;6.282;2023-08-24T06:25:45;6.60;;;4.55;;
51824;SDS011;37879;52.986;6.282;2023-08-24T06:28:11;7.40;;;4.30;;
51824;SDS011;37879;52.986;6.282;2023-08-24T06:30:40;5.68;;;3.92;;
51824;SDS011;37879;52.986;6.282;2023-08-24T06:33:08;8.10;;;4.57;;
51824;SDS011;37879;52.986;6.282;2023-08-24T06:35:35;8.13;;;4.30;;
51824;SDS011;37879;52.986;6.282;2023-08-24T06:38:03;5.82;;;3.40;;
51824;SDS011;37879;52.986;6.282;2023-08-24T06:40:29;6.60;;;4.07;;
51824;SDS011;37879;52.986;6.282;2023-08-24T06:42:55;4.72;;;3.30;;
51824;SDS011;37879;52.986;6.282;2023-08-24T06:45:22;5.50;;;3.80;;
51824;SDS011;37879;52.986;6.282;2023-08-24T06:47:47;4.53;;;3.22;;
51824;SDS011;37879;52.986;6.282;2023-08-24T06:50:13;4.78;;;3.10;;
51824;SDS011;37879;52.986;6.282;2023-08-24T06:52:40;6.40;;;3.55;;
51824;SDS011;37879;52.986;6.282;2023-08-24T06:55:08;4.55;;;3.22;;
51824;SDS011;37879;52.986;6.282;2023-08-24T06:57:35;5.80;;;3.55;;
51824;SDS011;37879;52.986;6.282;2023-08-24T07:00:00;8.23;;;3.30;;
51824;SDS011;37879;52.986;6.282;2023-08-24T07:02:26;4.70;;;3.45;;
51824;SDS011;37879;52.986;6.282;2023-08-24T07:04:52;7.72;;;3.08;;
51824;SDS011;37879;52.986;6.282;2023-08-24T07:07:18;4.07;;;3.13;;
51824;SDS011;37879;52.986;6.282;2023-08-24T07:09:44;5.72;;;3.33;;
51824;SDS011;37879;52.986;6.282;2023-08-24T07:12:09;11.85;;;3.72;;
51824;SDS011;37879;52.986;6.282;2023-08-24T07:14:36;6.03;;;2.70;;
51824;SDS011;37879;52.986;6.282;2023-08-24T07:17:01;7.05;;;3.63;;
51824;SDS011;37879;52.986;6.282;2023-08-24T07:19:27;6.43;;;3.13;;
51824;SDS011;37879;52.986;6.282;2023-08-24T07:21:53;7.07;;;4.10;;
51824;SDS011;37879;52.986;6.282;2023-08-24T07:24:19;10.88;;;4.00;;
51824;SDS011;37879;52.986;6.282;2023-08-24T07:26:45;7.20;;;4.28;;
51824;SDS011;37879;52.986;6.282;2023-08-24T07:29:11;5.47;;;3.95;;
51824;SDS011;37879;52.986;6.282;2023-08-24T07:31:37;9.10;;;4.03;;
51824;SDS011;37879;52.986;6.282;2023-08-24T07:34:03;5.88;;;4.03;;
51824;SDS011;37879;52.986;6.282;2023-08-24T07:36:32;6.05;;;4.07;;
51824;SDS011;37879;52.986;6.282;2023-08-24T07:38:57;8.05;;;5.57;;
51824;SDS011;37879;52.986;6.282;2023-08-24T07:41:23;5.90;;;4.05;;
51824;SDS011;37879;52.986;6.282;2023-08-24T07:43:49;12.05;;;4.97;;
51824;SDS011;37879;52.986;6.282;2023-08-24T07:46:14;7.63;;;4.68;;
51824;SDS011;37879;52.986;6.282;2023-08-24T07:48:40;8.18;;;4.32;;
51824;SDS011;37879;52.986;6.282;2023-08-24T07:51:07;8.27;;;4.57;;
51824;SDS011;37879;52.986;6.282;2023-08-24T07:53:33;6.22;;;4.10;;
51824;SDS011;37879;52.986;6.282;2023-08-24T07:55:59;8.52;;;4.30;;
51824;SDS011;37879;52.986;6.282;2023-08-24T07:58:26;10.32;;;4.43;;
51824;SDS011;37879;52.986;6.282;2023-08-24T08:00:52;6.47;;;4.07;;
51824;SDS011;37879;52.986;6.282;2023-08-24T08:03:18;6.60;;;4.72;;
51824;SDS011;37879;52.986;6.282;2023-08-24T08:05:45;5.45;;;4.13;;
51824;SDS011;37879;52.986;6.282;2023-08-24T08:08:12;10.40;;;3.95;;
51824;SDS011;37879;52.986;6.282;2023-08-24T08:10:38;6.22;;;3.90;;
51824;SDS011;37879;52.986;6.282;2023-08-24T08:13:04;6.05;;;4.47;;
51824;SDS011;37879;52.986;6.282;2023-08-24T08:15:30;6.88;;;4.00;;
51824;SDS011;37879;52.986;6.282;2023-08-24T08:17:55;8.43;;;4.63;;
51824;SDS011;37879;52.986;6.282;2023-08-24T08:20:21;6.28;;;4.70;;
51824;SDS011;37879;52.986;6.282;2023-08-24T08:22:47;4.95;;;3.95;;
51824;SDS011;37879;52.986;6.282;2023-08-24T08:25:12;7.95;;;4.35;;
51824;SDS011;37879;52.986;6.282;2023-08-24T08:27:38;7.00;;;4.88;;
51824;SDS011;37879;52.986;6.282;2023-08-24T08:30:04;7.88;;;5.15;;
51824;SDS011;37879;52.986;6.282;2023-08-24T08:32:30;9.27;;;5.03;;
51824;SDS011;37879;52.986;6.282;2023-08-24T08:34:56;9.35;;;4.57;;
51824;SDS011;37879;52.986;6.282;2023-08-24T08:37:23;9.93;;;5.32;;
51824;SDS011;37879;52.986;6.282;2023-08-24T08:39:49;10.05;;;5.90;;
51824;SDS011;37879;52.986;6.282;2023-08-24T08:42:15;9.63;;;5.38;;
51824;SDS011;37879;52.986;6.282;2023-08-24T08:44:41;7.75;;;5.45;;
51824;SDS011;37879;52.986;6.282;2023-08-24T08:47:09;8.20;;;5.32;;
51824;SDS011;37879;52.986;6.282;2023-08-24T08:49:37;8.90;;;4.88;;
51824;SDS011;37879;52.986;6.282;2023-08-24T08:52:08;7.80;;;5.60;;
51824;SDS011;37879;52.986;6.282;2023-08-24T08:54:34;5.97;;;5.10;;
51824;SDS011;37879;52.986;6.282;2023-08-24T08:57:01;10.02;;;5.20;;
51824;SDS011;37879;52.986;6.282;2023-08-24T08:59:27;9.48;;;5.70;;
51824;SDS011;37879;52.986;6.282;2023-08-24T09:01:56;10.98;;;5.93;;
51824;SDS011;37879;52.986;6.282;2023-08-24T09:04:23;9.38;;;5.72;;
51824;SDS011;37879;52.986;6.282;2023-08-24T09:06:49;8.20;;;5.30;;
51824;SDS011;37879;52.986;6.282;2023-08-24T09:09:15;7.60;;;6.00;;
51824;SDS011;37879;52.986;6.282;2023-08-24T09:11:41;10.90;;;6.30;;
51824;SDS011;37879;52.986;6.282;2023-08-24T09:14:12;7.72;;;5.50;;
51824;SDS011;37879;52.986;6.282;2023-08-24T09:16:38;7.28;;;5.38;;
51824;SDS011;37879;52.986;6.282;2023-08-24T09:19:04;8.93;;;5.60;;
51824;SDS011;37879;52.986;6.282;2023-08-24T09:21:31;7.57;;;5.72;;
51824;SDS011;37879;52.986;6.282;2023-08-24T09:24:02;8.18;;;5.18;;
51824;SDS011;37879;52.986;6.282;2023-08-24T09:26:29;8.93;;;5.80;;
51824;SDS011;37879;52.986;6.282;2023-08-24T09:29:12;9.48;;;5.40;;
51824;SDS011;37879;52.986;6.282;2023-08-24T09:31:39;8.15;;;4.97;;
51824;SDS011;37879;52.986;6.282;2023-08-24T09:34:06;9.75;;;6.93;;
51824;SDS011;37879;52.986;6.282;2023-08-24T09:36:32;10.43;;;6.53;;
51824;SDS011;37879;52.986;6.282;2023-08-24T09:38:59;8.70;;;6.05;;
51824;SDS011;37879;52.986;6.282;2023-08-24T09:41:44;9.45;;;6.32;;
51824;SDS011;37879;52.986;6.282;2023-08-24T09:44:12;7.72;;;6.15;;
51824;SDS011;37879;52.986;6.282;2023-08-24T09:46:38;9.13;;;6.15;;
51824;SDS011;37879;52.986;6.282;2023-08-24T09:49:05;7.57;;;5.97;;
51824;SDS011;37879;52.986;6.282;2023-08-24T09:51:32;8.38;;;5.82;;
51824;SDS011;37879;52.986;6.282;2023-08-24T09:53:59;11.10;;;6.55;;
51824;SDS011;37879;52.986;6.282;2023-08-24T09:56:31;9.57;;;6.25;;
51824;SDS011;37879;52.986;6.282;2023-08-24T09:59:10;9.32;;;6.28;;
51824;SDS011;37879;52.986;6.282;2023-08-24T10:01:43;9.25;;;6.25;;
51824;SDS011;37879;52.986;6.282;2023-08-24T10:04:12;9.05;;;7.28;;
51824;SDS011;37879;52.986;6.282;2023-08-24T10:06:39;12.95;;;6.80;;
51824;SDS011;37879;52.986;6.282;2023-08-24T10:09:09;11.52;;;8.07;;
51824;SDS011;37879;52.986;6.282;2023-08-24T10:11:52;10.85;;;7.82;;
51824;SDS011;37879;52.986;6.282;2023-08-24T10:14:27;10.55;;;7.68;;
51824;SDS011;37879;52.986;6.282;2023-08-24T10:16:57;10.25;;;7.75;;
51824;SDS011;37879;52.986;6.282;2023-08-24T10:19:23;8.85;;;6.50;;
51824;SDS011;37879;52.986;6.282;2023-08-24T10:21:50;9.90;;;6.38;;
51824;SDS011;37879;52.986;6.282;2023-08-24T10:24:18;12.68;;;8.70;;
51824;SDS011;37879;52.986;6.282;2023-08-24T10:26:46;10.60;;;7.30;;
51824;SDS011;37879;52.986;6.282;2023-08-24T10:29:12;10.60;;;7.50;;
51824;SDS011;37879;52.986;6.282;2023-08-24T10:31:40;9.48;;;7.80;;
51824;SDS011;37879;52.986;6.282;2023-08-24T10:34:06;14.57;;;8.65;;
51824;SDS011;37879;52.986;6.282;2023-08-24T10:36:33;9.93;;;7.43;;
51824;SDS011;37879;52.986;6.282;2023-08-24T10:39:02;10.73;;;7.43;;
51824;SDS011;37879;52.986;6.282;2023-08-24T10:41:47;12.25;;;7.95;;
51824;SDS011;37879;52.986;6.282;2023-08-24T10:44:20;8.98;;;6.88;;
51824;SDS011;37879;52.986;6.282;2023-08-24T10:47:07;13.45;;;8.35;;
51824;SDS011;37879;52.986;6.282;2023-08-24T10:49:40;13.98;;;8.35;;
51824;SDS011;37879;52.986;6.282;2023-08-24T10:52:25;10.50;;;7.78;;
51824;SDS011;37879;52.986;6.282;2023-08-24T10:55:02;12.20;;;8.07;;
51824;SDS011;37879;52.986;6.282;2023-08-24T10:57:39;11.05;;;7.80;;
51824;SDS011;37879;52.986;6.282;2023-08-24T11:00:10;12.35;;;7.55;;
51824;SDS011;37879;52.986;6.282;2023-08-24T11:02:44;12.80;;;8.50;;
51824;SDS011;37879;52.986;6.282;2023-08-24T11:05:16;11.52;;;7.90;;
51824;SDS011;37879;52.986;6.282;2023-08-24T11:08:03;10.45;;;8.27;;
51824;SDS011;37879;52.986;6.282;2023-08-24T11:10:34;13.35;;;9.55;;
51824;SDS011;37879;52.986;6.282;2023-08-24T11:15:43;10.80;;;8.13;;
51824;SDS011;37879;52.986;6.282;2023-08-24T11:20:51;12.55;;;8.05;;
51824;SDS011;37879;52.986;6.282;2023-08-24T11:23:17;9.93;;;8.27;;
51824;SDS011;37879;52.986;6.282;2023-08-24T11:25:45;10.27;;;8.60;;
51824;SDS011;37879;52.986;6.282;2023-08-24T11:28:13;11.32;;;9.02;;
51824;SDS011;37879;52.986;6.282;2023-08-24T11:30:43;12.88;;;8.70;;
51824;SDS011;37879;52.986;6.282;2023-08-24T11:33:10;13.32;;;8.52;;
51824;SDS011;37879;52.986;6.282;2023-08-24T11:35:39;13.68;;;9.10;;
51824;SDS011;37879;52.986;6.282;2023-08-24T11:38:10;14.38;;;10.35;;
51824;SDS011;37879;52.986;6.282;2023-08-24T11:40:36;11.43;;;8.73;;
51824;SDS011;37879;52.986;6.282;2023-08-24T11:43:02;11.48;;;9.02;;
51824;SDS011;37879;52.986;6.282;2023-08-24T11:45:31;14.25;;;8.73;;
51824;SDS011;37879;52.986;6.282;2023-08-24T11:47:59;13.05;;;9.38;;
51824;SDS011;37879;52.986;6.282;2023-08-24T11:50:29;9.63;;;8.63;;
51824;SDS011;37879;52.986;6.282;2023-08-24T11:52:55;10.90;;;8.85;;
51824;SDS011;37879;52.986;6.282;2023-08-24T11:55:24;15.73;;;9.38;;
51824;SDS011;37879;52.986;6.282;2023-08-24T11:57:50;13.90;;;9.25;;
51824;SDS011;37879;52.986;6.282;2023-08-24T12:00:20;12.75;;;8.82;;
51824;SDS011;37879;52.986;6.282;2023-08-24T12:02:46;13.75;;;10.93;;
51824;SDS011;37879;52.986;6.282;2023-08-24T12:05:22;11.98;;;9.43;;
51824;SDS011;37879;52.986;6.282;2023-08-24T12:07:50;11.30;;;9.20;;
51824;SDS011;37879;52.986;6.282;2023-08-24T12:10:17;16.00;;;9.98;;
51824;SDS011;37879;52.986;6.282;2023-08-24T12:12:43;11.15;;;9.98;;
51824;SDS011;37879;52.986;6.282;2023-08-24T12:15:14;13.02;;;10.25;;
51824;SDS011;37879;52.986;6.282;2023-08-24T12:17:45;13.10;;;9.77;;
51824;SDS011;37879;52.986;6.282;2023-08-24T12:20:21;12.55;;;10.43;;
51824;SDS011;37879;52.986;6.282;2023-08-24T12:22:51;11.95;;;9.93;;
51824;SDS011;37879;52.986;6.282;2023-08-24T12:25:18;12.02;;;10.82;;
51824;SDS011;37879;52.986;6.282;2023-08-24T12:27:47;14.90;;;11.07;;
51824;SDS011;37879;52.986;6.282;2023-08-24T12:30:12;12.10;;;9.88;;
51824;SDS011;37879;52.986;6.282;2023-08-24T12:32:42;12.13;;;9.18;;
51824;SDS011;37879;52.986;6.282;2023-08-24T12:35:09;12.00;;;9.98;;
51824;SDS011;37879;52.986;6.282;2023-08-24T12:37:35;11.40;;;9.50;;
51824;SDS011;37879;52.986;6.282;2023-08-24T12:40:02;13.27;;;10.43;;
51824;SDS011;37879;52.986;6.282;2023-08-24T12:42:30;11.30;;;9.90;;
51824;SDS011;37879;52.986;6.282;2023-08-24T12:44:56;10.48;;;9.40;;
51824;SDS011;37879;52.986;6.282;2023-08-24T12:47:22;14.18;;;10.07;;
51824;SDS011;37879;52.986;6.282;2023-08-24T12:49:48;11.23;;;10.02;;
51824;SDS011;37879;52.986;6.282;2023-08-24T12:52:15;12.10;;;10.27;;
51824;SDS011;37879;52.986;6.282;2023-08-24T12:54:41;13.13;;;10.80;;
51824;SDS011;37879;52.986;6.282;2023-08-24T12:57:07;13.52;;;10.88;;
51824;SDS011;37879;52.986;6.282;2023-08-24T12:59:33;14.75;;;11.10;;
51824;SDS011;37879;52.986;6.282;2023-08-24T13:01:59;12.85;;;10.57;;
51824;SDS011;37879;52.986;6.282;2023-08-24T13:04:25;13.63;;;11.98;;
51824;SDS011;37879;52.986;6.282;2023-08-24T13:06:53;12.43;;;10.70;;
51824;SDS011;37879;52.986;6.282;2023-08-24T13:09:18;13.10;;;11.57;;
51824;SDS011;37879;52.986;6.282;2023-08-24T13:11:44;14.50;;;11.90;;
51824;SDS011;37879;52.986;6.282;2023-08-24T13:14:10;14.18;;;11.95;;
51824;SDS011;37879;52.986;6.282;2023-08-24T13:16:35;14.43;;;11.25;;
51824;SDS011;37879;52.986;6.282;2023-08-24T13:19:01;14.43;;;11.18;;
51824;SDS011;37879;52.986;6.282;2023-08-24T13:21:27;14.73;;;13.27;;
51824;SDS011;37879;52.986;6.282;2023-08-24T13:23:53;14.52;;;12.25;;
51824;SDS011;37879;52.986;6.282;2023-08-24T13:26:19;13.48;;;11.77;;
51824;SDS011;37879;52.986;6.282;2023-08-24T13:28:48;14.77;;;12.05;;
51824;SDS011;37879;52.986;6.282;2023-08-24T13:31:14;14.77;;;12.02;;
51824;SDS011;37879;52.986;6.282;2023-08-24T13:33:41;13.80;;;12.35;;
51824;SDS011;37879;52.986;6.282;2023-08-24T13:36:06;13.80;;;12.32;;
51824;SDS011;37879;52.986;6.282;2023-08-24T13:38:32;13.85;;;12.45;;
51824;SDS011;37879;52.986;6.282;2023-08-24T13:40:58;15.00;;;12.10;;
51824;SDS011;37879;52.986;6.282;2023-08-24T13:43:23;12.07;;;10.88;;
51824;SDS011;37879;52.986;6.282;2023-08-24T13:45:49;12.10;;;10.73;;
51824;SDS011;37879;52.986;6.282;2023-08-24T13:48:15;13.48;;;11.75;;
51824;SDS011;37879;52.986;6.282;2023-08-24T13:50:41;15.07;;;11.95;;
51824;SDS011;37879;52.986;6.282;2023-08-24T13:53:14;15.30;;;11.40;;
51824;SDS011;37879;52.986;6.282;2023-08-24T13:55:40;13.82;;;12.40;;
51824;SDS011;37879;52.986;6.282;2023-08-24T13:58:05;13.68;;;11.98;;
51824;SDS011;37879;52.986;6.282;2023-08-24T14:00:31;14.60;;;11.55;;
51824;SDS011;37879;52.986;6.282;2023-08-24T14:02:57;13.32;;;11.93;;
51824;SDS011;37879;52.986;6.282;2023-08-24T14:05:22;13.35;;;11.15;;
51824;SDS011;37879;52.986;6.282;2023-08-24T14:07:48;13.15;;;10.07;;
51824;SDS011;37879;52.986;6.282;2023-08-24T14:10:14;15.43;;;10.55;;
51824;SDS011;37879;52.986;6.282;2023-08-24T14:12:40;13.63;;;11.48;;
51824;SDS011;37879;52.986;6.282;2023-08-24T14:15:06;15.15;;;9.95;;
51824;SDS011;37879;52.986;6.282;2023-08-24T14:17:32;13.43;;;10.40;;
51824;SDS011;37879;52.986;6.282;2023-08-24T14:19:58;11.25;;;10.00;;
51824;SDS011;37879;52.986;6.282;2023-08-24T14:22:25;11.05;;;10.00;;
51824;SDS011;37879;52.986;6.282;2023-08-24T14:24:51;11.15;;;10.05;;
51824;SDS011;37879;52.986;6.282;2023-08-24T14:27:16;14.63;;;11.57;;
51824;SDS011;37879;52.986;6.282;2023-08-24T14:29:42;13.60;;;10.70;;
51824;SDS011;37879;52.986;6.282;2023-08-24T14:32:07;13.07;;;11.68;;
51824;SDS011;37879;52.986;6.282;2023-08-24T14:34:33;14.13;;;12.05;;
51824;SDS011;37879;52.986;6.282;2023-08-24T14:36:59;12.88;;;11.13;;
51824;SDS011;37879;52.986;6.282;2023-08-24T14:39:25;13.23;;;11.82;;
51824;SDS011;37879;52.986;6.282;2023-08-24T14:41:50;13.13;;;11.20;;
51824;SDS011;37879;52.986;6.282;2023-08-24T14:44:16;20.67;;;11.68;;
51824;SDS011;37879;52.986;6.282;2023-08-24T14:46:41;12.95;;;10.65;;
51824;SDS011;37879;52.986;6.282;2023-08-24T14:49:07;13.13;;;11.82;;
51824;SDS011;37879;52.986;6.282;2023-08-24T14:51:33;17.05;;;11.45;;
51824;SDS011;37879;52.986;6.282;2023-08-24T14:53:59;13.25;;;11.90;;